Time;durP1;ratioP1;P1;durP2;ratioP2;P2;SDS_P1;SDS_P2;PMS_P1;PMS_P2;Temp;Humidity;BMP_temperature;BMP_pressure;BME280_temperature;BME280_humidity;BME280_pressure;Samples;Min_cycle;Max_cycle;Signal;HPM_P1;HPM_P2
2022/07/22 00:01:06;;;;;;;8.50;7.80;;;23.20;69.70;23.80;96874.00;;;;5033281;28;20229;-83
2022/07/22 00:03:33;;;;;;;8.70;7.87;;;23.10;69.80;23.80;96871.00;;;;5038492;28;20644;-84
2022/07/22 00:06:02;;;;;;;7.90;7.30;;;23.10;69.90;23.80;96871.00;;;;5040883;28;20248;-84
2022/07/22 00:08:29;;;;;;;7.80;7.13;;;23.10;70.00;23.80;96865.00;;;;5034570;28;20240;-83
2022/07/22 00:10:56;;;;;;;8.20;7.50;;;23.10;70.00;23.80;96868.00;;;;5034337;28;20272;-84
2022/07/22 00:13:23;;;;;;;8.63;7.90;;;23.10;70.10;23.80;96867.00;;;;5033965;28;20211;-83
2022/07/22 00:15:51;;;;;;;8.53;7.70;;;23.10;70.20;23.80;96867.00;;;;5034196;28;20257;-83
2022/07/22 00:18:18;;;;;;;7.27;6.57;;;23.10;70.30;23.80;96864.00;;;;5033349;28;20287;-83
2022/07/22 00:20:45;;;;;;;8.17;7.43;;;23.10;70.20;23.80;96866.00;;;;5033883;28;20282;-83
2022/07/22 00:23:14;;;;;;;7.80;7.03;;;23.10;70.10;23.80;96856.00;;;;5017569;28;20225;-83
2022/07/22 00:25:42;;;;;;;7.87;7.23;;;23.10;70.10;23.80;96855.00;;;;5032919;28;20649;-83
2022/07/22 00:28:09;;;;;;;8.37;7.57;;;23.00;70.10;23.70;96851.00;;;;5033304;28;20722;-85
2022/07/22 00:30:36;;;;;;;7.40;6.80;;;23.00;70.20;23.70;96851.00;;;;5033550;28;20318;-83
2022/07/22 00:33:04;;;;;;;8.13;7.23;;;23.10;70.30;23.70;96846.00;;;;5017413;28;20610;-84
2022/07/22 00:35:32;;;;;;;9.20;8.03;;;23.00;70.20;23.70;96845.00;;;;5014689;28;20302;-83
2022/07/22 00:37:59;;;;;;;7.83;7.20;;;23.00;70.20;23.70;96845.00;;;;5013573;28;20660;-83
2022/07/22 00:40:29;;;;;;;8.80;8.00;;;23.00;70.20;23.60;96838.00;;;;5013089;28;20241;-84
2022/07/22 00:42:56;;;;;;;7.90;7.30;;;23.00;70.30;23.60;96841.00;;;;5013205;28;20714;-83
2022/07/22 00:45:23;;;;;;;9.00;8.20;;;22.90;70.10;23.60;96835.00;;;;5012631;28;20218;-83
2022/07/22 00:47:50;;;;;;;7.60;7.00;;;22.90;70.10;23.50;96836.00;;;;5013835;28;20710;-83
2022/07/22 00:50:19;;;;;;;7.87;7.20;;;22.90;70.00;23.50;96833.00;;;;5013389;28;20627;-83
2022/07/22 00:52:47;;;;;;;8.03;7.33;;;22.90;70.10;23.50;96832.00;;;;5046541;28;20556;-83
2022/07/22 00:55:14;;;;;;;8.10;7.40;;;22.80;70.20;23.40;96834.00;;;;5021774;28;20309;-83
2022/07/22 00:57:43;;;;;;;7.97;7.27;;;22.80;71.00;23.40;96832.00;;;;5012302;28;20292;-83
2022/07/22 01:00:16;;;;;;;8.47;7.80;;;22.80;70.60;23.40;96834.00;;;;5012913;28;20288;-83
2022/07/22 01:02:44;;;;;;;8.17;7.47;;;22.80;70.80;23.40;96838.00;;;;5013140;28;20216;-84
2022/07/22 01:05:11;;;;;;;8.70;7.90;;;22.70;70.70;23.30;96830.00;;;;5011928;28;20241;-84
2022/07/22 01:07:39;;;;;;;8.57;7.77;;;22.70;70.90;23.30;96839.00;;;;5031128;28;20663;-83
2022/07/22 01:10:08;;;;;;;8.60;7.80;;;22.70;70.90;23.30;96833.00;;;;5032163;28;20698;-83
2022/07/22 01:12:36;;;;;;;8.43;7.73;;;22.60;70.90;23.30;96837.00;;;;5034309;28;20201;-83
2022/07/22 01:15:06;;;;;;;7.87;7.17;;;22.60;70.80;23.20;96836.00;;;;5047585;28;20275;-83
2022/07/22 01:17:33;;;;;;;7.83;7.20;;;22.60;70.90;23.20;96836.00;;;;5030778;28;20251;-83
2022/07/22 01:20:04;;;;;;;7.63;6.93;;;22.60;70.80;23.10;96828.00;;;;5012642;28;20264;-83
2022/07/22 01:22:32;;;;;;;7.83;7.20;;;22.50;70.90;23.10;96828.00;;;;5016759;28;20201;-83
2022/07/22 01:24:59;;;;;;;8.20;7.57;;;22.50;71.00;23.10;96824.00;;;;5011155;28;20264;-84
2022/07/22 01:27:26;;;;;;;7.70;7.00;;;22.50;71.10;23.00;96837.00;;;;5028626;28;20197;-83
2022/07/22 01:29:53;;;;;;;7.80;7.10;;;22.40;71.00;23.00;96839.00;;;;5032004;28;20289;-83
2022/07/22 01:32:21;;;;;;;7.63;7.00;;;22.40;71.10;23.00;96834.00;;;;5015968;28;20277;-83
2022/07/22 01:34:48;;;;;;;8.17;7.40;;;22.40;71.00;22.90;96825.00;;;;5011463;28;20272;-84
2022/07/22 01:37:16;;;;;;;9.63;8.73;;;22.30;70.90;22.90;96832.00;;;;5012146;28;20256;-83
2022/07/22 01:39:43;;;;;;;8.43;7.73;;;22.30;71.20;22.90;96834.00;;;;5011813;28;20229;-83
2022/07/22 01:42:11;;;;;;;8.20;7.50;;;22.30;71.30;22.90;96830.00;;;;5040531;28;20193;-83
2022/07/22 01:44:38;;;;;;;9.13;8.23;;;22.30;71.40;22.80;96831.00;;;;5051888;28;20859;-83
2022/07/22 01:47:06;;;;;;;8.80;7.93;;;22.20;71.40;22.80;96830.00;;;;5017482;28;20686;-83
2022/07/22 01:49:34;;;;;;;9.53;8.63;;;22.20;71.40;22.80;96829.00;;;;5021352;28;20206;-83
2022/07/22 01:52:01;;;;;;;9.73;8.47;;;22.20;71.50;22.70;96822.00;;;;5014577;28;20321;-83
2022/07/22 01:54:30;;;;;;;7.57;6.97;;;22.10;71.70;22.70;96826.00;;;;5033854;28;20202;-83
2022/07/22 01:56:57;;;;;;;8.37;7.67;;;22.10;71.70;22.70;96827.00;;;;5030220;28;20276;-83
2022/07/22 01:59:24;;;;;;;9.07;8.27;;;22.10;71.80;22.70;96819.00;;;;5024096;28;20249;-83
2022/07/22 02:01:52;;;;;;;9.47;8.63;;;22.10;72.20;22.60;96818.00;;;;5038414;28;20259;-83
2022/07/22 02:04:19;;;;;;;9.17;8.37;;;22.00;72.50;22.60;96820.00;;;;5034345;28;20289;-83
2022/07/22 02:06:46;;;;;;;8.10;7.40;;;22.00;72.60;22.60;96819.00;;;;5040636;28;20193;-83
2022/07/22 02:09:13;;;;;;;9.10;8.40;;;22.00;72.60;22.50;96813.00;;;;5057257;28;20655;-83
2022/07/22 02:11:42;;;;;;;7.43;6.83;;;22.00;72.60;22.60;96820.00;;;;5056854;28;20252;-83
2022/07/22 02:14:09;;;;;;;8.03;7.33;;;22.00;72.60;22.50;96820.00;;;;5056330;28;20674;-83
2022/07/22 02:16:36;;;;;;;7.93;7.13;;;22.00;72.60;22.50;96820.00;;;;5072935;22;20252;-84
2022/07/22 02:19:04;;;;;;;8.00;7.30;;;21.90;72.70;22.50;96829.00;;;;5088351;28;20258;-84
2022/07/22 02:21:31;;;;;;;8.00;7.30;;;21.90;72.60;22.50;96829.00;;;;5074916;28;20234;-85
2022/07/22 02:23:59;;;;;;;7.80;7.13;;;21.90;72.50;22.50;96826.00;;;;5074772;28;20200;-84
2022/07/22 02:26:26;;;;;;;8.23;7.53;;;21.90;72.50;22.50;96822.00;;;;5075163;28;20211;-84
2022/07/22 02:28:55;;;;;;;8.20;7.50;;;21.90;72.50;22.50;96817.00;;;;5074496;28;20300;-84
2022/07/22 02:31:22;;;;;;;8.07;7.47;;;21.90;72.50;22.50;96819.00;;;;5074289;28;20241;-84
2022/07/22 02:33:49;;;;;;;8.13;7.43;;;21.90;72.40;22.50;96826.00;;;;5074595;28;20236;-84
2022/07/22 02:36:17;;;;;;;8.37;7.77;;;21.90;72.50;22.50;96822.00;;;;5074549;28;20257;-84
2022/07/22 02:38:47;;;;;;;8.33;7.63;;;21.90;72.50;22.40;96819.00;;;;5074277;28;20771;-84
2022/07/22 02:41:14;;;;;;;7.57;6.80;;;21.80;72.50;22.40;96819.00;;;;5074499;28;20675;-84
2022/07/22 02:43:42;;;;;;;7.83;7.23;;;21.80;72.50;22.40;96809.00;;;;5074892;28;20684;-85
2022/07/22 02:46:11;;;;;;;8.80;8.10;;;21.80;72.40;22.40;96818.00;;;;5074523;28;20216;-84
2022/07/22 02:48:38;;;;;;;8.80;8.00;;;21.80;72.30;22.40;96816.00;;;;5074334;28;20311;-84
2022/07/22 02:51:06;;;;;;;8.30;7.60;;;21.80;72.20;22.30;96810.00;;;;5068456;28;20592;-84
2022/07/22 02:53:33;;;;;;;8.03;7.37;;;21.80;72.20;22.30;96812.00;;;;5073944;28;20200;-84
2022/07/22 02:56:01;;;;;;;8.33;7.67;;;21.80;72.20;22.30;96819.00;;;;5074083;28;20637;-84
2022/07/22 02:58:28;;;;;;;8.00;7.40;;;21.80;72.30;22.30;96820.00;;;;5073989;28;20219;-84
2022/07/22 03:00:55;;;;;;;8.40;7.67;;;21.70;72.40;22.30;96817.00;;;;5074502;28;20200;-84
2022/07/22 03:03:24;;;;;;;7.97;7.37;;;21.70;72.50;22.30;96818.00;;;;5073824;28;20245;-84
2022/07/22 03:05:52;;;;;;;9.00;8.20;;;21.70;72.50;22.30;96827.00;;;;5074057;28;20213;-84
2022/07/22 03:08:19;;;;;;;8.83;8.03;;;21.70;72.30;22.20;96825.00;;;;5073110;28;20212;-84
2022/07/22 03:10:46;;;;;;;8.43;7.67;;;21.70;72.10;22.20;96822.00;;;;5068627;28;20250;-84
2022/07/22 03:13:14;;;;;;;8.23;7.53;;;21.70;72.00;22.20;96829.00;;;;5070264;28;20702;-84
2022/07/22 03:15:41;;;;;;;9.07;8.23;;;21.60;71.70;22.20;96830.00;;;;5077968;28;20202;-84
2022/07/22 03:18:08;;;;;;;8.90;8.10;;;21.60;71.70;22.10;96829.00;;;;5073647;28;20696;-84
2022/07/22 03:20:37;;;;;;;8.30;7.50;;;21.60;71.80;22.10;96820.00;;;;5073304;28;20196;-85
2022/07/22 03:23:05;;;;;;;8.10;7.30;;;21.50;71.80;22.00;96826.00;;;;5073843;28;20489;-84
2022/07/22 03:25:33;;;;;;;8.60;7.90;;;21.50;71.80;22.00;96823.00;;;;5062534;28;20218;-85
2022/07/22 03:28:03;;;;;;;8.67;7.77;;;21.50;71.80;22.00;96820.00;;;;5071593;28;20267;-84
2022/07/22 03:30:31;;;;;;;8.30;7.60;;;21.40;71.80;21.90;96828.00;;;;5071751;28;20204;-84
2022/07/22 03:32:58;;;;;;;9.17;8.27;;;21.40;71.90;21.90;96823.00;;;;5073850;28;20192;-84
2022/07/22 03:35:26;;;;;;;9.20;8.40;;;21.50;72.10;21.90;96824.00;;;;5065981;28;20207;-84
2022/07/22 03:37:54;;;;;;;8.30;7.53;;;21.40;72.20;21.90;96822.00;;;;5072512;28;20230;-84
2022/07/22 03:40:22;;;;;;;8.90;8.17;;;21.40;72.20;21.90;96822.00;;;;5073109;28;20222;-84
2022/07/22 03:42:49;;;;;;;9.23;8.37;;;21.30;72.00;21.80;96822.00;;;;5073267;28;20192;-84
2022/07/22 03:45:16;;;;;;;9.10;8.30;;;21.30;72.00;21.80;96821.00;;;;5072860;28;20207;-84
2022/07/22 03:47:43;;;;;;;8.70;8.00;;;21.30;72.10;21.80;96826.00;;;;5073307;28;20227;-84
2022/07/22 03:50:11;;;;;;;8.83;8.13;;;21.20;72.00;21.70;96824.00;;;;5067799;28;20714;-84
2022/07/22 03:52:38;;;;;;;8.87;8.10;;;21.20;72.00;21.70;96818.00;;;;5062812;28;20694;-84
2022/07/22 03:55:11;;;;;;;8.27;7.57;;;21.20;72.00;21.70;96826.00;;;;5069798;28;20200;-86
2022/07/22 03:57:38;;;;;;;8.63;7.83;;;21.20;72.20;21.70;96820.00;;;;5073250;28;20638;-84
2022/07/22 04:00:08;;;;;;;9.50;8.60;;;21.10;72.20;21.70;96820.00;;;;5073163;28;20202;-84
2022/07/22 04:02:35;;;;;;;8.87;8.07;;;21.10;72.30;21.60;96827.00;;;;5070916;28;20214;-84
2022/07/22 04:05:02;;;;;;;9.60;8.53;;;21.10;72.30;21.60;96823.00;;;;5072682;28;20203;-84
2022/07/22 04:07:29;;;;;;;9.70;8.80;;;21.10;72.40;21.60;96823.00;;;;5072795;28;20232;-84
2022/07/22 04:10:04;;;;;;;9.27;8.47;;;21.10;72.50;21.60;96822.00;;;;5073316;28;20230;-84
2022/07/22 04:12:34;;;;;;;8.33;7.63;;;21.10;72.60;21.60;96815.00;;;;5073261;28;20694;-83
2022/07/22 04:15:04;;;;;;;9.83;9.00;;;21.00;72.60;21.60;96817.00;;;;5072611;28;20199;-82
2022/07/22 04:17:38;;;;;;;9.93;9.03;;;21.00;72.80;21.60;96820.00;;;;5073625;28;20670;-82
2022/07/22 04:20:07;;;;;;;10.23;9.33;;;21.00;73.10;21.50;96815.00;;;;5073371;28;20181;-87
2022/07/22 04:22:36;;;;;;;9.93;9.10;;;21.00;73.20;21.60;96813.00;;;;5073666;28;20668;-86
2022/07/22 04:25:04;;;;;;;10.80;9.73;;;21.00;73.40;21.60;96819.00;;;;5073407;28;20594;-86
2022/07/22 04:27:33;;;;;;;9.70;8.83;;;21.00;73.40;21.60;96817.00;;;;5073473;28;20227;-86
2022/07/22 04:30:00;;;;;;;9.10;8.20;;;21.00;73.60;21.60;96812.00;;;;5072861;28;20662;-87
2022/07/22 04:32:27;;;;;;;10.00;9.00;;;21.00;73.60;21.70;96820.00;;;;5072831;28;20269;-86
2022/07/22 04:35:00;;;;;;;11.20;8.57;;;21.00;73.70;21.70;96815.00;;;;5072429;28;20196;-85
2022/07/22 04:37:31;;;;;;;10.17;9.27;;;21.00;73.90;21.70;96808.00;;;;5072671;28;20224;-86
2022/07/22 04:39:58;;;;;;;10.00;9.00;;;21.00;73.80;21.70;96810.00;;;;5072375;28;20200;-86
2022/07/22 04:42:29;;;;;;;9.27;8.47;;;21.10;73.90;21.70;96803.00;;;;5072208;28;20222;-86
2022/07/22 04:44:57;;;;;;;8.90;8.10;;;21.10;74.00;21.70;96807.00;;;;5072810;28;20623;-86
2022/07/22 04:47:27;;;;;;;14.93;9.50;;;21.10;74.10;21.70;96803.00;;;;5072194;28;20565;-87
2022/07/22 04:49:56;;;;;;;13.97;9.30;;;21.10;74.10;21.80;96812.00;;;;5072364;28;20211;-86
2022/07/22 04:52:24;;;;;;;13.73;10.50;;;21.10;74.20;21.80;96812.00;;;;5072307;28;20238;-86
2022/07/22 04:54:51;;;;;;;11.13;10.00;;;21.10;74.30;21.80;96815.00;;;;5072148;28;20196;-84
2022/07/22 04:57:21;;;;;;;11.07;9.53;;;21.10;74.60;21.80;96820.00;;;;5071922;28;20203;-87
2022/07/22 04:59:53;;;;;;;9.53;8.63;;;21.10;75.40;21.80;96814.00;;;;5072368;28;20184;-87
2022/07/22 05:02:25;;;;;;;10.60;9.70;;;21.10;74.70;21.90;96814.00;;;;5071430;28;20226;-86
2022/07/22 05:04:55;;;;;;;9.80;8.90;;;21.20;75.10;21.90;96818.00;;;;5062213;28;20212;-86
2022/07/22 05:07:24;;;;;;;9.90;8.93;;;21.20;75.00;21.90;96822.00;;;;5052105;28;20221;-86
2022/07/22 05:09:53;;;;;;;10.37;9.43;;;21.20;75.20;21.90;96824.00;;;;5052056;28;20200;-86
2022/07/22 05:12:23;;;;;;;10.53;9.53;;;21.20;75.40;22.00;96814.00;;;;5051973;28;20223;-86
2022/07/22 05:14:51;;;;;;;10.00;9.17;;;21.30;75.50;22.00;96817.00;;;;5071522;28;20249;-85
2022/07/22 05:17:18;;;;;;;9.07;8.27;;;21.30;75.50;22.00;96817.00;;;;5071636;28;20208;-86
2022/07/22 05:19:46;;;;;;;9.97;9.07;;;21.30;75.50;22.00;96815.00;;;;5069915;28;20204;-86
2022/07/22 05:22:14;;;;;;;8.80;8.00;;;21.30;75.50;22.00;96818.00;;;;5071650;28;20587;-85
2022/07/22 05:24:43;;;;;;;9.63;8.77;;;21.30;75.50;22.10;96823.00;;;;5072427;28;20714;-87
2022/07/22 05:27:13;;;;;;;9.83;8.90;;;21.40;75.70;22.10;96815.00;;;;5070668;28;20191;-86
2022/07/22 05:29:40;;;;;;;10.33;9.43;;;21.40;75.80;22.10;96815.00;;;;5072014;28;20280;-86
2022/07/22 05:32:08;;;;;;;9.23;8.47;;;21.40;75.90;22.20;96823.00;;;;5071864;28;20227;-87
2022/07/22 05:34:35;;;;;;;9.90;9.03;;;21.50;76.00;22.20;96826.00;;;;5064017;28;20275;-86
2022/07/22 05:37:04;;;;;;;10.63;9.73;;;21.50;76.10;22.20;96817.00;;;;5071622;28;20188;-85
2022/07/22 05:39:31;;;;;;;9.03;8.23;;;21.50;76.10;22.20;96825.00;;;;5072050;28;20221;-85
2022/07/22 05:41:58;;;;;;;9.43;8.60;;;21.50;76.20;22.30;96821.00;;;;5076563;28;20192;-86
2022/07/22 05:44:25;;;;;;;9.90;9.00;;;21.60;76.30;22.30;96816.00;;;;5069443;28;20191;-86
2022/07/22 05:46:53;;;;;;;11.10;9.13;;;21.60;76.40;22.40;96821.00;;;;5089562;28;20727;-86
2022/07/22 05:49:27;;;;;;;9.23;8.43;;;21.60;76.40;22.40;96820.00;;;;5076501;28;20211;-86
2022/07/22 05:51:57;;;;;;;9.77;8.90;;;21.70;76.40;22.50;96823.00;;;;5055799;28;20204;-86
2022/07/22 05:54:28;;;;;;;10.00;9.20;;;21.70;76.50;22.50;96814.00;;;;5056360;28;20206;-87
2022/07/22 05:56:56;;;;;;;10.53;9.53;;;21.80;76.80;22.60;96816.00;;;;5066600;28;20587;-86
2022/07/22 05:59:23;;;;;;;10.00;9.10;;;21.80;76.60;22.60;96822.00;;;;5076610;28;20269;-85
2022/07/22 06:01:56;;;;;;;11.43;10.33;;;21.90;76.70;22.70;96817.00;;;;5076429;28;20203;-86
2022/07/22 06:04:23;;;;;;;10.63;9.60;;;21.90;76.80;22.70;96821.00;;;;5076236;28;20188;-86
2022/07/22 06:06:51;;;;;;;10.97;9.87;;;22.00;76.70;22.80;96813.00;;;;5075586;28;20203;-86
2022/07/22 06:09:18;;;;;;;10.47;9.57;;;22.00;76.70;22.80;96808.00;;;;5075793;28;20277;-86
2022/07/22 06:11:50;;;;;;;9.90;8.90;;;22.00;76.70;22.90;96810.00;;;;5076054;28;20775;-86
2022/07/22 06:14:17;;;;;;;10.90;9.93;;;22.10;76.90;22.90;96812.00;;;;5075990;28;20642;-87
2022/07/22 06:16:47;;;;;;;10.37;9.27;;;22.10;76.70;23.00;96817.00;;;;5076129;28;20212;-86
2022/07/22 06:19:21;;;;;;;10.73;9.70;;;22.20;76.70;23.00;96822.00;;;;5076307;28;20204;-86
2022/07/22 06:21:48;;;;;;;10.53;9.57;;;22.30;76.60;23.10;96825.00;;;;5072499;28;20253;-86
2022/07/22 06:24:15;;;;;;;11.33;10.23;;;22.30;76.20;23.10;96818.00;;;;5076826;28;20649;-86
2022/07/22 06:26:44;;;;;;;10.43;9.53;;;22.40;76.10;23.20;96827.00;;;;5075792;28;20234;-86
2022/07/22 06:29:12;;;;;;;10.73;9.63;;;22.40;76.00;23.30;96826.00;;;;5075308;28;20216;-85
2022/07/22 06:31:40;;;;;;;11.43;10.20;;;22.50;76.00;23.30;96828.00;;;;5075252;28;20574;-86
2022/07/22 06:34:08;;;;;;;10.97;9.97;;;22.50;76.00;23.40;96822.00;;;;5075580;28;20561;-86
2022/07/22 06:36:35;;;;;;;11.20;10.03;;;22.60;76.00;23.40;96828.00;;;;5074541;28;20640;-86
2022/07/22 06:39:02;;;;;;;11.73;10.47;;;22.70;75.90;23.50;96829.00;;;;5071090;28;20293;-86
2022/07/22 06:41:30;;;;;;;10.63;9.53;;;22.70;75.80;23.60;96830.00;;;;5075558;28;20204;-86
2022/07/22 06:43:57;;;;;;;10.13;9.23;;;22.80;75.60;23.70;96832.00;;;;5075519;28;20645;-86
2022/07/22 06:46:26;;;;;;;9.77;8.80;;;22.90;75.40;23.70;96825.00;;;;5075094;28;20238;-85
2022/07/22 06:48:53;;;;;;;10.23;9.23;;;22.90;75.20;23.80;96827.00;;;;5065800;28;20799;-86
2022/07/22 06:51:20;;;;;;;9.53;8.50;;;23.00;75.10;23.80;96819.00;;;;5075131;28;20622;-86
2022/07/22 06:53:47;;;;;;;10.17;8.83;;;23.10;75.10;23.90;96831.00;;;;5075404;28;20227;-86
2022/07/22 06:56:15;;;;;;;9.13;8.30;;;23.10;74.80;24.00;96828.00;;;;5075249;28;20246;-86
2022/07/22 06:58:43;;;;;;;9.97;8.97;;;23.20;74.70;24.10;96816.00;;;;5075562;28;20216;-86
2022/07/22 07:01:15;;;;;;;9.23;8.33;;;23.30;74.60;24.10;96824.00;;;;5076003;28;20653;-86
2022/07/22 07:03:44;;;;;;;9.27;8.40;;;23.30;74.30;24.20;96822.00;;;;5073379;28;20206;-86
2022/07/22 07:06:17;;;;;;;8.57;7.73;;;23.40;74.30;24.30;96821.00;;;;5074982;28;20203;-87
2022/07/22 07:08:44;;;;;;;9.33;7.93;;;23.50;74.10;24.40;96818.00;;;;5075515;28;20242;-87
2022/07/22 07:11:11;;;;;;;7.97;7.33;;;23.60;73.90;24.50;96821.00;;;;5074680;28;20613;-86
2022/07/22 07:13:39;;;;;;;8.77;8.03;;;23.70;74.10;24.60;96820.00;;;;5074269;28;20275;-86
2022/07/22 07:16:09;;;;;;;8.70;7.97;;;23.80;74.40;24.80;96815.00;;;;5074479;28;20199;-86
2022/07/22 07:18:37;;;;;;;8.67;7.83;;;23.90;74.70;25.00;96811.00;;;;5074601;28;20227;-86
2022/07/22 07:21:07;;;;;;;8.83;8.13;;;24.00;74.60;25.20;96818.00;;;;5074793;28;20209;-86
2022/07/22 07:23:37;;;;;;;9.13;8.33;;;24.20;74.40;25.40;96814.00;;;;5074473;28;20622;-86
2022/07/22 07:26:04;;;;;;;10.17;7.60;;;24.30;74.30;25.60;96814.00;;;;5074509;28;20284;-86
2022/07/22 07:28:33;;;;;;;9.03;8.17;;;24.50;74.10;25.80;96819.00;;;;5073381;28;20627;-86
2022/07/22 07:31:01;;;;;;;8.40;7.70;;;24.70;74.00;26.00;96814.00;;;;5074974;28;20261;-86
2022/07/22 07:33:28;;;;;;;8.33;7.63;;;24.90;73.70;26.20;96817.00;;;;5074218;28;20262;-86
2022/07/22 07:35:55;;;;;;;8.57;7.77;;;25.00;73.40;26.40;96818.00;;;;5074577;28;20203;-86
2022/07/22 07:38:24;;;;;;;8.67;7.77;;;25.20;72.80;26.70;96819.00;;;;5074458;28;20715;-86
2022/07/22 07:40:52;;;;;;;7.87;7.10;;;25.40;72.30;26.90;96816.00;;;;5074581;28;20192;-87
2022/07/22 07:43:20;;;;;;;7.70;7.03;;;25.60;72.30;27.10;96815.00;;;;5074164;28;20218;-86
2022/07/22 07:45:47;;;;;;;8.43;7.63;;;25.80;72.10;27.20;96810.00;;;;5074167;28;20258;-86
2022/07/22 07:48:14;;;;;;;8.07;7.37;;;26.00;71.70;27.40;96812.00;;;;5074452;28;20311;-86
2022/07/22 07:50:42;;;;;;;7.77;7.00;;;26.10;71.30;27.60;96815.00;;;;5074551;28;20200;-86
2022/07/22 07:53:09;;;;;;;7.80;6.70;;;26.30;70.60;27.80;96816.00;;;;5074412;28;20745;-86
2022/07/22 07:55:39;;;;;;;6.93;6.33;;;26.50;70.30;28.00;96810.00;;;;5073508;28;20741;-85
2022/07/22 07:58:06;;;;;;;7.07;6.47;;;26.60;69.70;28.20;96807.00;;;;5075148;28;20311;-85
2022/07/22 08:00:34;;;;;;;6.53;6.00;;;26.90;69.70;28.40;96803.00;;;;5074623;28;20216;-86
2022/07/22 08:03:02;;;;;;;6.13;5.65;;;27.10;68.70;28.60;96798.00;;;;5073488;28;20208;-86
2022/07/22 08:05:30;;;;;;;6.30;5.78;;;27.20;67.60;28.80;96799.00;;;;5073535;28;20195;-86
2022/07/22 08:07:58;;;;;;;6.65;6.05;;;27.40;67.60;28.90;96805.00;;;;5073964;28;20293;-86
2022/07/22 08:10:26;;;;;;;5.70;5.20;;;27.50;66.80;29.10;96805.00;;;;5073923;28;20211;-86
2022/07/22 08:12:57;;;;;;;6.05;5.57;;;27.70;66.10;29.30;96801.00;;;;5075702;28;20218;-86
2022/07/22 08:15:25;;;;;;;5.25;4.85;;;27.90;64.30;29.50;96802.00;;;;5076537;28;20207;-86
2022/07/22 08:17:53;;;;;;;5.80;5.30;;;28.10;64.40;29.60;96803.00;;;;5073970;28;20311;-86
2022/07/22 08:20:20;;;;;;;5.22;4.72;;;28.20;64.10;29.80;96802.00;;;;5074376;28;20195;-86
2022/07/22 08:22:47;;;;;;;5.13;4.72;;;28.40;62.80;30.00;96803.00;;;;5074274;28;20196;-86
2022/07/22 08:25:15;;;;;;;5.28;4.78;;;28.60;62.60;30.10;96806.00;;;;5073886;28;20265;-86
2022/07/22 08:27:42;;;;;;;5.30;4.22;;;28.70;61.70;30.30;96809.00;;;;5074202;28;20223;-86
2022/07/22 08:30:13;;;;;;;5.35;4.80;;;28.90;61.30;30.40;96810.00;;;;5073586;28;20619;-85
2022/07/22 08:32:40;;;;;;;5.78;5.30;;;29.00;60.10;30.60;96806.00;;;;5073753;28;20208;-86
2022/07/22 08:35:09;;;;;;;5.88;5.38;;;29.20;60.60;30.80;96798.00;;;;5073611;28;20557;-86
2022/07/22 08:37:37;;;;;;;5.35;4.65;;;29.30;59.90;31.00;96809.00;;;;5073534;28;20222;-86
2022/07/22 08:40:08;;;;;;;5.18;4.78;;;29.50;59.90;31.20;96809.00;;;;5073318;28;20226;-86
2022/07/22 08:42:39;;;;;;;4.85;4.45;;;29.60;59.60;31.40;96808.00;;;;5073642;28;20210;-86
2022/07/22 08:45:09;;;;;;;5.82;5.18;;;29.80;58.70;31.50;96810.00;;;;5073693;28;20206;-86
2022/07/22 08:47:39;;;;;;;6.25;5.65;;;30.00;58.50;31.70;96809.00;;;;5072996;28;20634;-86
2022/07/22 08:50:09;;;;;;;5.43;4.93;;;30.10;58.30;31.90;96806.00;;;;5073029;28;20245;-85
2022/07/22 08:52:37;;;;;;;5.13;4.72;;;30.30;58.40;32.10;96803.00;;;;5072928;28;20574;-86
2022/07/22 08:55:05;;;;;;;5.00;4.70;;;30.40;58.00;32.20;96802.00;;;;5073203;28;20208;-86
2022/07/22 08:57:33;;;;;;;5.10;4.53;;;30.60;57.60;32.40;96799.00;;;;5072967;28;20239;-86
2022/07/22 09:00:02;;;;;;;6.63;4.88;;;30.70;57.70;32.60;96792.00;;;;5072789;28;20199;-86
2022/07/22 09:02:40;;;;;;;5.72;5.25;;;30.90;57.00;32.70;96796.00;;;;5072869;28;20219;-86
2022/07/22 09:05:10;;;;;;;5.60;5.10;;;31.00;56.20;32.90;96792.00;;;;5086548;22;20223;-84
2022/07/22 09:07:40;;;;;;;5.40;4.90;;;31.20;56.40;33.10;96787.00;;;;5051723;28;20619;-84
2022/07/22 09:10:11;;;;;;;5.20;4.70;;;31.40;56.20;33.30;96786.00;;;;5038446;28;20608;-85
2022/07/22 09:12:54;;;;;;;4.85;4.38;;;31.50;55.80;33.50;96795.00;;;;5050820;28;20224;-84
2022/07/22 09:15:28;;;;;;;4.65;4.35;;;31.70;54.50;33.80;96791.00;;;;5047392;28;20193;-85
2022/07/22 09:18:00;;;;;;;4.85;4.45;;;31.80;54.80;34.00;96791.00;;;;5036575;28;20574;-84
2022/07/22 09:20:29;;;;;;;4.82;4.40;;;32.00;54.60;34.30;96792.00;;;;5079292;22;20677;-81
2022/07/22 09:22:57;;;;;;;5.53;5.03;;;32.20;54.60;34.50;96791.00;;;;5063272;28;20235;-82
2022/07/22 09:25:29;;;;;;;4.97;4.50;;;32.40;53.80;34.80;96786.00;;;;5069811;28;20203;-82
2022/07/22 09:28:13;;;;;;;4.85;4.45;;;32.60;53.20;35.00;96783.00;;;;5068837;28;20224;-81
2022/07/22 09:30:46;;;;;;;4.47;4.03;;;32.80;50.90;35.30;96786.00;;;;5076897;28;20686;-81
2022/07/22 09:33:15;;;;;;;4.18;3.90;;;32.90;52.70;35.50;96787.00;;;;5071012;28;20315;-82
2022/07/22 09:35:43;;;;;;;3.60;3.33;;;33.10;52.70;35.70;96786.00;;;;5071244;28;20287;-82
2022/07/22 09:38:13;;;;;;;4.18;3.78;;;33.30;51.90;35.90;96787.00;;;;5076671;28;20638;-82
2022/07/22 09:40:43;;;;;;;4.20;3.90;;;33.40;50.80;36.00;96779.00;;;;5067063;28;20700;-82
2022/07/22 09:43:12;;;;;;;4.28;3.97;;;33.60;51.00;36.20;96776.00;;;;5065101;28;20224;-81
2022/07/22 09:45:48;;;;;;;5.10;4.70;;;33.80;50.30;36.40;96769.00;;;;5069625;28;20570;-82
2022/07/22 09:48:18;;;;;;;4.22;3.92;;;33.90;49.40;36.60;96771.00;;;;5064447;28;20641;-82
2022/07/22 09:50:47;;;;;;;5.68;3.95;;;34.10;49.80;36.80;96768.00;;;;5066448;28;20207;-82
2022/07/22 09:53:15;;;;;;;4.32;3.95;;;34.30;49.10;36.90;96764.00;;;;5069293;28;20659;-82
2022/07/22 09:55:43;;;;;;;4.90;4.50;;;34.40;49.10;37.10;96763.00;;;;5074529;28;20239;-80
2022/07/22 09:58:11;;;;;;;4.03;3.70;;;34.60;48.70;37.20;96758.00;;;;5081907;28;20199;-83
2022/07/22 10:00:41;;;;;;;4.55;3.83;;;34.70;48.50;37.30;96750.00;;;;5078468;28;20298;-82
2022/07/22 10:03:12;;;;;;;4.35;4.05;;;34.90;48.50;37.50;96754.00;;;;5072351;28;20236;-82
2022/07/22 10:05:43;;;;;;;4.00;3.70;;;35.00;48.00;37.60;96755.00;;;;5070334;28;20279;-83
2022/07/22 10:08:10;;;;;;;3.75;3.55;;;35.20;47.30;37.70;96752.00;;;;5081087;28;20282;-83
2022/07/22 10:10:40;;;;;;;4.03;3.70;;;35.30;47.00;37.70;96745.00;;;;5069484;28;20250;-82
2022/07/22 10:13:09;;;;;;;3.83;3.42;;;35.50;46.70;37.80;96752.00;;;;5069909;28;20330;-83
2022/07/22 10:15:38;;;;;;;3.30;3.10;;;35.60;46.10;37.80;96744.00;;;;5072299;28;20243;-81
2022/07/22 10:18:15;;;;;;;3.72;3.42;;;35.80;45.80;37.90;96741.00;;;;5075734;28;20630;-83
2022/07/22 10:20:44;;;;;;;4.97;3.80;;;36.00;45.60;38.00;96745.00;;;;5064419;28;20309;-83
2022/07/22 10:23:13;;;;;;;3.65;3.42;;;36.20;45.40;38.10;96735.00;;;;5070221;28;20236;-83
2022/07/22 10:25:53;;;;;;;3.47;3.25;;;36.40;44.80;38.10;96746.00;;;;5069369;28;20284;-83
2022/07/22 10:28:29;;;;;;;3.58;3.38;;;36.60;43.20;38.20;96740.00;;;;5070850;28;20197;-83
2022/07/22 10:31:21;;;;;;;4.32;3.33;;;36.70;43.70;38.20;96735.00;;;;5068495;28;20242;-82
2022/07/22 10:33:52;;;;;;;4.55;3.53;;;36.80;43.20;38.20;96736.00;;;;5060929;28;20231;-83
2022/07/22 10:36:35;;;;;;;3.65;3.10;;;36.90;43.00;38.20;96735.00;;;;5078183;28;20242;-82
2022/07/22 10:39:07;;;;;;;3.00;2.75;;;37.00;42.90;38.20;96731.00;;;;5078610;28;20219;-83
2022/07/22 10:41:37;;;;;;;3.00;2.80;;;37.00;42.30;38.20;96729.00;;;;5092588;28;20232;-84
2022/07/22 10:44:05;;;;;;;3.47;3.28;;;37.10;42.80;38.20;96724.00;;;;5087610;28;20224;-82
2022/07/22 10:47:02;;;;;;;3.25;2.92;;;37.10;42.40;38.20;96727.00;;;;5072504;28;20683;-83
2022/07/22 10:49:29;;;;;;;2.75;2.63;;;37.30;42.50;38.20;96730.00;;;;5025657;28;20281;-83
2022/07/22 10:52:16;;;;;;;2.83;2.45;;;37.30;41.90;38.30;96732.00;;;;5079670;28;20305;-83
2022/07/22 10:55:22;;;;;;;3.03;2.78;;;37.50;40.40;38.20;96729.00;;;;5069135;28;20314;-81
2022/07/22 10:57:49;;;;;;;3.13;2.92;;;37.60;38.90;38.20;96727.00;;;;5072460;28;20191;-83
2022/07/22 11:00:17;;;;;;;3.55;3.20;;;37.60;40.30;38.10;96722.00;;;;5077632;28;20284;-83